createdAt,value
2016-12-25T00:00:51.141Z,92.94
2016-12-25T00:01:50.385Z,93.13
2016-12-25T00:02:50.467Z,92.46
2016-12-25T00:03:50.875Z,92.75
2016-12-25T00:04:50.863Z,92.94
2016-12-25T00:05:51.107Z,93.04
2016-12-25T00:06:51.242Z,93.04
2016-12-25T00:07:50.652Z,93.32
2016-12-25T00:08:51.830Z,93.23
2016-12-25T00:09:51.024Z,93.41
2016-12-25T00:10:50.616Z,93.79
2016-12-25T00:11:51.133Z,94.18
2016-12-25T00:12:50.875Z,94.46
2016-12-25T00:13:52.079Z,94.32
2016-12-25T00:14:50.946Z,94.22
2016-12-25T00:15:51.240Z,94.13
2016-12-25T00:16:50.554Z,94.65
2016-12-25T00:17:51.066Z,93.51
2016-12-25T00:18:51.158Z,94.37
2016-12-25T00:19:51.141Z,94.37
2016-12-25T00:20:50.503Z,94.27
2016-12-25T00:21:50.793Z,94.18
2016-12-25T00:22:50.909Z,94.37
2016-12-25T00:23:51.157Z,94.56
2016-12-25T00:24:51.055Z,94.27
2016-12-25T00:25:51.057Z,94.18
2016-12-25T00:26:50.739Z,93.89
2016-12-25T00:27:50.630Z,94.18
2016-12-25T00:28:51.209Z,94.51
2016-12-25T00:29:51.619Z,95.03
2016-12-25T00:30:51.387Z,95.51
2016-12-25T00:31:50.698Z,95.08
2016-12-25T00:32:51.553Z,94.51
2016-12-25T00:33:51.290Z,95.36
2016-12-25T00:34:51.163Z,95.27
2016-12-25T00:35:51.287Z,94.51
2016-12-25T00:36:50.953Z,94.6
2016-12-25T00:37:51.092Z,95.27
2016-12-25T00:38:50.891Z,95.27
2016-12-25T00:39:51.090Z,95.12
2016-12-25T00:40:50.839Z,95.79
2016-12-25T00:41:50.991Z,95.56
2016-12-25T00:42:51.080Z,96.12
2016-12-25T00:43:50.861Z,96.31
2016-12-25T00:44:52.141Z,95.75
2016-12-25T00:45:51.059Z,96.31
2016-12-25T00:46:51.766Z,96.31
2016-12-25T00:47:51.001Z,95.84
2016-12-25T00:48:51.806Z,95.17
2016-12-25T00:49:51.632Z,94.98
2016-12-25T00:50:52.012Z,95.32
2016-12-25T00:51:51.157Z,94.51
2016-12-25T00:52:51.400Z,95.12
2016-12-25T00:53:51.495Z,95.46
2016-12-25T00:54:51.167Z,95.36
2016-12-25T00:55:51.444Z,95.36
2016-12-25T00:56:51.321Z,94.98
2016-12-25T00:57:51.340Z,94.98
2016-12-25T00:58:51.964Z,94.98
2016-12-25T00:59:51.064Z,95.36
2016-12-25T01:00:51.872Z,95.65
2016-12-25T01:01:51.737Z,94.98
2016-12-25T01:02:51.662Z,95.46
2016-12-25T01:03:51.158Z,95.56
2016-12-25T01:04:51.674Z,95.94
2016-12-25T01:05:51.269Z,94.98
2016-12-25T01:06:51.839Z,96.12
2016-12-25T01:07:51.571Z,96.22
2016-12-25T01:08:51.578Z,96.6
2016-12-25T01:09:51.363Z,97.45
2016-12-25T01:10:51.294Z,97.83
2016-12-25T01:11:51.576Z,99.16
2016-12-25T01:12:51.850Z,99.16
2016-12-25T01:13:51.729Z,98.88
2016-12-25T01:14:51.902Z,99.99
2016-12-25T01:15:51.698Z,99.93
2016-12-25T01:16:52.079Z,99.99
2016-12-25T01:17:52.081Z,99.99
2016-12-25T01:18:51.499Z,99.99
2016-12-25T01:19:52.677Z,99.99
2016-12-25T01:20:51.775Z,99.99
2016-12-25T01:21:51.659Z,99.99
2016-12-25T01:22:51.634Z,99.99
2016-12-25T01:23:52.311Z,99.99
2016-12-25T01:24:51.769Z,99.99
2016-12-25T01:25:51.975Z,99.99
2016-12-25T01:26:51.781Z,99.99
2016-12-25T01:27:51.799Z,99.99
2016-12-25T01:28:52.063Z,99.99
2016-12-25T01:29:52.604Z,99.99
2016-12-25T01:30:51.843Z,99.99
2016-12-25T01:31:51.748Z,99.99
2016-12-25T01:32:51.784Z,99.99
2016-12-25T01:33:51.565Z,99.99
2016-12-25T01:34:51.819Z,99.99
2016-12-25T01:35:51.864Z,99.99
2016-12-25T01:36:51.733Z,99.99
2016-12-25T01:37:52.413Z,99.99
2016-12-25T01:38:52.370Z,99.99
2016-12-25T01:39:51.990Z,99.99
2016-12-25T01:40:52.601Z,99.99
2016-12-25T01:41:51.819Z,99.99
2016-12-25T01:42:51.856Z,99.99
2016-12-25T01:43:53.075Z,99.99
2016-12-25T01:44:52.740Z,99.99
2016-12-25T01:45:52.261Z,99.99
2016-12-25T01:46:51.995Z,99.99
2016-12-25T01:47:51.954Z,99.99
2016-12-25T01:48:52.777Z,99.99
2016-12-25T01:49:51.913Z,99.99
2016-12-25T01:50:52.254Z,99.99
2016-12-25T01:51:52.610Z,99.99
2016-12-25T01:52:52.221Z,99.99
2016-12-25T01:53:52.251Z,99.99
2016-12-25T01:54:52.820Z,99.99
2016-12-25T01:55:52.194Z,99.99
2016-12-25T01:56:52.021Z,99.99
2016-12-25T01:57:52.355Z,99.99
2016-12-25T01:58:52.539Z,99.99
2016-12-25T01:59:52.748Z,99.99
2016-12-25T02:00:52.532Z,99.99
2016-12-25T02:01:52.065Z,99.99
2016-12-25T02:02:52.609Z,99.99
2016-12-25T02:03:52.260Z,99.99
2016-12-25T02:04:52.615Z,99.99
2016-12-25T02:05:52.406Z,99.99
2016-12-25T02:06:53.121Z,99.99
2016-12-25T02:07:52.362Z,99.99
2016-12-25T02:08:52.221Z,99.99
2016-12-25T02:09:52.723Z,99.99
2016-12-25T02:10:53.459Z,99.99
2016-12-25T02:11:52.487Z,99.99
2016-12-25T02:12:52.456Z,99.99
2016-12-25T02:13:52.159Z,99.99
2016-12-25T02:14:52.486Z,99.99
2016-12-25T02:15:52.605Z,99.99
2016-12-25T02:16:52.427Z,99.99
2016-12-25T02:17:52.471Z,99.99
2016-12-25T02:18:52.589Z,99.99
2016-12-25T02:19:53.067Z,99.99
2016-12-25T02:20:53.220Z,99.99
2016-12-25T02:21:52.799Z,99.99
2016-12-25T02:22:53.378Z,99.99
2016-12-25T02:23:52.947Z,99.99
2016-12-25T02:24:53.522Z,99.99
2016-12-25T02:25:52.870Z,99.99
2016-12-25T02:26:52.548Z,99.99
2016-12-25T02:27:52.779Z,99.99
2016-12-25T02:28:53.336Z,99.99
2016-12-25T02:29:52.653Z,99.99
2016-12-25T02:30:53.026Z,99.99
2016-12-25T02:31:53.080Z,99.99
2016-12-25T02:32:53.548Z,99.99
2016-12-25T02:33:53.213Z,99.99
2016-12-25T02:34:53.215Z,99.99
2016-12-25T02:35:53.001Z,99.99
2016-12-25T02:36:53.066Z,99.99
2016-12-25T02:37:53.215Z,99.99
2016-12-25T02:38:53.133Z,99.99
2016-12-25T02:39:53.099Z,99.99
2016-12-25T02:40:52.834Z,99.99
2016-12-25T02:41:53.313Z,99.99
2016-12-25T02:42:53.386Z,99.99
2016-12-25T02:43:53.255Z,99.99
2016-12-25T02:44:53.244Z,99.99
2016-12-25T02:45:53.770Z,99.99
2016-12-25T02:46:53.234Z,99.99
2016-12-25T02:47:53.288Z,99.99
2016-12-25T02:48:53.239Z,99.99
2016-12-25T02:49:53.146Z,99.99
2016-12-25T02:50:53.329Z,99.99
2016-12-25T02:51:53.709Z,99.99
2016-12-25T02:52:53.284Z,99.99
2016-12-25T02:53:53.701Z,99.99
2016-12-25T02:54:53.471Z,99.99
2016-12-25T02:55:53.348Z,99.99
2016-12-25T02:56:54.059Z,99.99
2016-12-25T02:57:53.444Z,99.99
2016-12-25T02:58:53.164Z,99.99
2016-12-25T02:59:53.147Z,99.99
2016-12-25T03:00:53.769Z,99.99
2016-12-25T03:01:53.145Z,99.99
2016-12-25T03:02:53.322Z,99.99
2016-12-25T03:03:53.387Z,99.99
2016-12-25T03:04:53.779Z,99.99
2016-12-25T03:05:53.288Z,99.99
2016-12-25T03:06:53.746Z,99.99
2016-12-25T03:07:53.248Z,99.99
2016-12-25T03:08:53.875Z,99.99
2016-12-25T03:09:53.879Z,99.99
2016-12-25T03:10:53.886Z,99.99
2016-12-25T03:11:53.563Z,99.99
2016-12-25T03:12:53.411Z,99.99
2016-12-25T03:13:53.455Z,99.99
2016-12-25T03:14:53.590Z,99.99
2016-12-25T03:15:53.335Z,99.99
2016-12-25T03:16:53.468Z,99.99
2016-12-25T03:17:53.374Z,99.99
2016-12-25T03:18:53.727Z,99.99
2016-12-25T03:19:53.407Z,99.99
2016-12-25T03:20:54.182Z,99.99
2016-12-25T03:21:53.875Z,99.99
2016-12-25T03:22:53.844Z,99.99
2016-12-25T03:23:53.864Z,99.99
2016-12-25T03:24:53.948Z,99.99
2016-12-25T03:25:54.360Z,99.99
2016-12-25T03:26:53.741Z,99.99
2016-12-25T03:27:53.707Z,99.99
2016-12-25T03:28:54.184Z,99.99
2016-12-25T03:29:53.717Z,99.99
2016-12-25T03:30:53.611Z,99.99
2016-12-25T03:31:53.834Z,99.99
2016-12-25T03:32:53.765Z,99.99
2016-12-25T03:33:54.159Z,99.99
2016-12-25T03:34:54.217Z,99.99
2016-12-25T03:35:54.064Z,99.99
2016-12-25T03:36:53.591Z,99.99
2016-12-25T03:37:54.461Z,99.99
2016-12-25T03:38:54.449Z,99.99
2016-12-25T03:39:53.717Z,99.99
2016-12-25T03:40:54.166Z,99.99
2016-12-25T03:41:54.088Z,99.99
2016-12-25T03:42:54.136Z,99.99
2016-12-25T03:43:53.729Z,99.99
2016-12-25T03:44:53.732Z,99.99
2016-12-25T03:45:54.436Z,99.99
2016-12-25T03:46:54.406Z,99.99
2016-12-25T03:47:54.091Z,99.99
2016-12-25T03:48:54.631Z,99.99
2016-12-25T03:49:54.430Z,99.99
2016-12-25T03:50:54.479Z,99.99
2016-12-25T03:51:54.292Z,99.99
2016-12-25T03:52:54.465Z,99.99
2016-12-25T03:53:54.168Z,99.99
2016-12-25T03:54:54.602Z,99.99
2016-12-25T03:55:54.238Z,99.99
2016-12-25T03:56:55.028Z,99.99
2016-12-25T03:57:54.551Z,99.99
2016-12-25T03:58:54.582Z,99.99
2016-12-25T03:59:54.093Z,99.99
2016-12-25T04:00:54.605Z,99.99
2016-12-25T04:01:54.470Z,99.99
2016-12-25T04:02:54.555Z,99.99
2016-12-25T04:03:54.695Z,99.99
2016-12-25T04:04:53.993Z,99.99
2016-12-25T04:05:54.498Z,99.99
2016-12-25T04:06:54.810Z,99.99
2016-12-25T04:07:54.218Z,99.99
2016-12-25T04:08:55.061Z,99.99
2016-12-25T04:09:54.513Z,99.99
2016-12-25T04:10:54.382Z,99.99
2016-12-25T04:11:54.688Z,99.99
2016-12-25T04:12:54.278Z,99.99
2016-12-25T04:13:54.723Z,99.99
2016-12-25T04:14:54.661Z,99.99
2016-12-25T04:15:54.420Z,99.99
2016-12-25T04:16:54.892Z,99.99
2016-12-25T04:17:54.353Z,99.99
2016-12-25T04:18:54.383Z,99.99
2016-12-25T04:19:54.386Z,99.99
2016-12-25T04:20:54.921Z,99.99
2016-12-25T04:21:54.363Z,99.99
2016-12-25T04:22:54.839Z,99.99
2016-12-25T04:23:54.643Z,99.99
2016-12-25T04:24:54.271Z,99.99
2016-12-25T04:25:54.461Z,99.99
2016-12-25T04:26:54.914Z,99.99
2016-12-25T04:27:54.787Z,99.99
2016-12-25T04:28:54.583Z,99.99
2016-12-25T04:29:54.772Z,99.99
2016-12-25T04:30:54.904Z,99.99
2016-12-25T04:31:55.035Z,99.99
2016-12-25T04:32:54.790Z,99.99
2016-12-25T04:33:54.725Z,99.99
2016-12-25T04:34:54.662Z,99.99
2016-12-25T04:35:54.973Z,99.99
2016-12-25T04:36:54.745Z,99.99
2016-12-25T04:37:54.705Z,99.99
2016-12-25T04:38:55.351Z,99.99
2016-12-25T04:39:54.827Z,99.99
2016-12-25T04:40:55.442Z,99.99
2016-12-25T04:41:55.031Z,99.99
2016-12-25T04:42:54.875Z,99.99
2016-12-25T04:43:55.222Z,99.99
2016-12-25T04:44:54.737Z,99.99
2016-12-25T04:45:55.024Z,99.99
2016-12-25T04:46:55.047Z,99.99
2016-12-25T04:47:55.576Z,99.99
2016-12-25T04:48:55.364Z,99.99
2016-12-25T04:49:55.398Z,99.99
2016-12-25T04:50:54.830Z,99.99
2016-12-25T04:51:55.053Z,99.99
2016-12-25T04:52:55.203Z,99.99
2016-12-25T04:53:55.373Z,99.99
2016-12-25T04:54:54.886Z,99.99
2016-12-25T04:55:54.766Z,99.99
2016-12-25T04:56:55.726Z,99.99
2016-12-25T04:57:54.840Z,99.99
2016-12-25T04:58:55.413Z,99.99
2016-12-25T04:59:55.205Z,99.99
2016-12-25T05:00:55.015Z,99.99
2016-12-25T05:01:54.882Z,99.99
2016-12-25T05:02:55.074Z,99.99
2016-12-25T05:03:55.893Z,99.99
2016-12-25T05:04:56.119Z,99.99
2016-12-25T05:05:54.929Z,99.99
2016-12-25T05:06:55.487Z,99.99
2016-12-25T05:07:55.736Z,99.99
2016-12-25T05:08:55.340Z,99.99
2016-12-25T05:09:55.841Z,99.99
2016-12-25T05:10:55.527Z,99.99
2016-12-25T05:11:55.760Z,99.99
2016-12-25T05:12:55.147Z,99.99
2016-12-25T05:13:55.765Z,99.99
2016-12-25T05:14:55.655Z,99.99
2016-12-25T05:15:55.783Z,99.99
2016-12-25T05:16:55.365Z,99.99
2016-12-25T05:17:55.577Z,99.99
2016-12-25T05:18:55.621Z,99.99
2016-12-25T05:19:55.168Z,99.99
2016-12-25T05:20:56.262Z,99.99
2016-12-25T05:21:55.477Z,99.99
2016-12-25T05:22:55.469Z,99.99
2016-12-25T05:23:55.484Z,99.99
2016-12-25T05:24:55.755Z,99.99
2016-12-25T05:25:55.694Z,99.99
2016-12-25T05:26:55.679Z,99.99
2016-12-25T05:27:55.661Z,99.99
2016-12-25T05:28:56.247Z,99.99
2016-12-25T05:29:56.204Z,99.99
2016-12-25T05:30:56.131Z,99.99
2016-12-25T05:31:56.028Z,99.99
2016-12-25T05:32:55.945Z,99.99
2016-12-25T05:33:56.584Z,99.99
2016-12-25T05:34:55.612Z,99.99
2016-12-25T05:35:55.955Z,99.99
2016-12-25T05:36:56.055Z,99.99
2016-12-25T05:37:55.797Z,99.99
2016-12-25T05:38:55.488Z,99.99
2016-12-25T05:39:56.386Z,99.99
2016-12-25T05:40:56.338Z,99.99
2016-12-25T05:41:55.985Z,99.99
2016-12-25T05:42:56.249Z,99.99
2016-12-25T05:43:56.119Z,99.99
2016-12-25T05:44:55.753Z,99.99
2016-12-25T05:45:56.275Z,99.99
2016-12-25T05:46:56.561Z,99.99
2016-12-25T05:47:55.919Z,99.99
2016-12-25T05:48:55.979Z,99.99
2016-12-25T05:49:56.027Z,99.99
2016-12-25T05:50:55.789Z,99.99
2016-12-25T05:51:56.569Z,99.99
2016-12-25T05:52:56.433Z,99.99
2016-12-25T05:53:56.148Z,99.99
2016-12-25T05:54:56.010Z,99.99
2016-12-25T05:55:56.145Z,99.99
2016-12-25T05:56:56.187Z,99.99
2016-12-25T05:57:56.236Z,99.99
2016-12-25T05:58:56.461Z,99.99
2016-12-25T05:59:56.133Z,99.99
2016-12-25T06:00:56.641Z,99.99
2016-12-25T06:01:55.691Z,99.99
2016-12-25T06:05:57.147Z,99.99
2016-12-25T06:06:56.432Z,99.99
2016-12-25T06:07:56.650Z,99.99
2016-12-25T06:08:56.836Z,99.99
2016-12-25T06:09:56.218Z,99.99
2016-12-25T06:10:57.707Z,99.99
2016-12-25T06:11:57.224Z,99.99
2016-12-25T06:12:58.611Z,99.99
2016-12-25T06:13:57.683Z,99.99
2016-12-25T06:14:58.413Z,99.99
2016-12-25T06:15:58.937Z,99.99
2016-12-25T06:16:57.141Z,99.99
2016-12-25T06:17:56.667Z,99.99
2016-12-25T06:18:58.217Z,99.99
2016-12-25T06:19:56.950Z,99.99
2016-12-25T06:20:57.494Z,99.99
2016-12-25T06:21:56.742Z,99.99
2016-12-25T06:22:57.451Z,99.99
2016-12-25T06:23:57.338Z,99.99
2016-12-25T06:24:57.678Z,99.99
2016-12-25T06:25:56.947Z,99.99
2016-12-25T06:26:57.603Z,99.99
2016-12-25T06:27:57.982Z,99.99
2016-12-25T06:28:56.878Z,99.99
2016-12-25T06:29:58.164Z,99.99
2016-12-25T06:30:57.644Z,99.99
2016-12-25T06:31:56.995Z,99.99
2016-12-25T06:32:57.348Z,99.99
2016-12-25T06:33:58.781Z,99.99
2016-12-25T06:34:56.680Z,99.99
2016-12-25T06:35:58.802Z,99.99
2016-12-25T06:36:57.333Z,99.99
2016-12-25T06:37:58.545Z,99.99
2016-12-25T06:38:57.057Z,99.99
2016-12-25T06:39:57.652Z,99.99
2016-12-25T06:40:57.433Z,99.99
2016-12-25T06:41:57.527Z,99.99
2016-12-25T06:42:56.800Z,99.99
2016-12-25T06:43:56.927Z,99.5
2016-12-25T06:44:57.486Z,99.99
2016-12-25T06:45:57.955Z,99.99
2016-12-25T06:46:58.810Z,99.99
2016-12-25T06:47:57.594Z,99.88
2016-12-25T06:48:58.337Z,99.99
2016-12-25T06:49:57.419Z,99.99
2016-12-25T06:50:59.314Z,99.99
2016-12-25T06:51:58.944Z,99.69
2016-12-25T06:52:57.256Z,99.99
2016-12-25T06:53:58.511Z,99.99
2016-12-25T06:54:57.788Z,99.99
2016-12-25T06:55:58.712Z,99.99
2016-12-25T06:56:57.312Z,99.99
2016-12-25T06:57:57.726Z,99.69
2016-12-25T06:58:57.962Z,99.99
2016-12-25T06:59:58.804Z,99.99
2016-12-25T07:00:57.693Z,99.69
2016-12-25T07:01:57.548Z,99.99
2016-12-25T07:02:57.711Z,99.98
2016-12-25T07:03:57.398Z,99.99
2016-12-25T07:04:57.605Z,99.99
2016-12-25T07:05:57.608Z,99.99
2016-12-25T07:06:57.858Z,99.99
2016-12-25T07:07:58.862Z,99.99
2016-12-25T07:08:58.295Z,99.88
2016-12-25T07:09:57.323Z,99.99
2016-12-25T07:10:57.587Z,99.99
2016-12-25T07:11:57.186Z,99.99
2016-12-25T07:12:57.476Z,99.99
2016-12-25T07:13:57.664Z,99.99
2016-12-25T07:14:58.586Z,99.99
2016-12-25T07:15:58.119Z,99.99
2016-12-25T07:16:58.317Z,99.99
2016-12-25T07:17:57.948Z,99.99
2016-12-25T07:18:57.480Z,99.98
2016-12-25T07:19:58.881Z,99.5
2016-12-25T07:20:59.273Z,99.99
2016-12-25T07:21:58.431Z,99.31
2016-12-25T07:22:59.373Z,99.12
2016-12-25T07:23:58.693Z,99.22
2016-12-25T07:24:59.210Z,99.79
2016-12-25T07:25:58.816Z,99.99
2016-12-25T07:27:01.199Z,99.99
2016-12-25T07:28:00.563Z,99.6
2016-12-25T07:28:58.327Z,99.99
2016-12-25T07:29:59.571Z,99.98
2016-12-25T07:30:58.820Z,99.99
2016-12-25T07:31:59.631Z,99.99
2016-12-25T07:32:58.270Z,99.99
2016-12-25T07:33:58.443Z,99.31
2016-12-25T07:34:58.698Z,99.55
2016-12-25T07:35:59.135Z,99.17
2016-12-25T07:37:58.284Z,99.99
2016-12-25T07:38:59.365Z,99.36
2016-12-25T07:41:00.050Z,99.99
2016-12-25T07:41:59.257Z,99.93
2016-12-25T07:42:58.396Z,99.99
2016-12-25T07:43:58.267Z,99.99
2016-12-25T07:44:58.493Z,99.99
2016-12-25T07:48:00.210Z,99.99
2016-12-25T07:48:57.985Z,99.93
2016-12-25T07:49:58.480Z,99.93
2016-12-25T07:50:58.880Z,99.99
2016-12-25T07:51:57.829Z,99.99
2016-12-25T07:52:58.782Z,99.99
2016-12-25T07:53:58.458Z,99.99
2016-12-25T07:54:58.237Z,99.99
2016-12-25T07:55:58.662Z,99.74
2016-12-25T07:56:58.711Z,99.99
2016-12-25T07:57:58.132Z,99.99
2016-12-25T07:58:58.122Z,99.99
2016-12-25T07:59:58.735Z,99.99
2016-12-25T08:00:58.087Z,99.99
2016-12-25T08:01:57.787Z,99.99
2016-12-25T08:02:58.694Z,99.99
2016-12-25T08:03:58.007Z,99.99
2016-12-25T08:04:58.278Z,99.99
2016-12-25T08:05:58.127Z,99.99
2016-12-25T08:06:59.123Z,99.99
2016-12-25T08:07:58.710Z,99.99
2016-12-25T08:08:58.940Z,99.99
2016-12-25T08:09:58.443Z,99.99
2016-12-25T08:16:02.228Z,99.99
2016-12-25T08:16:58.356Z,99.99
2016-12-25T08:17:59.222Z,99.99
2016-12-25T08:18:58.841Z,99.99
2016-12-25T08:19:58.244Z,99.99
2016-12-25T08:20:58.609Z,99.99
2016-12-25T08:21:58.765Z,99.99
2016-12-25T08:22:58.784Z,99.99
2016-12-25T08:23:58.525Z,99.99
2016-12-25T08:24:58.247Z,99.99
2016-12-25T08:25:58.365Z,99.99
2016-12-25T08:26:58.757Z,99.99
2016-12-25T08:27:58.687Z,99.99
2016-12-25T08:28:58.661Z,99.99
2016-12-25T08:29:58.455Z,99.99
2016-12-25T08:30:58.589Z,99.99
2016-12-25T08:31:58.256Z,99.99
2016-12-25T08:32:58.686Z,99.99
2016-12-25T08:33:58.651Z,99.99
2016-12-25T08:34:59.017Z,99.99
2016-12-25T08:35:58.609Z,99.99
2016-12-25T08:36:59.002Z,99.99
2016-12-25T08:37:59.091Z,99.99
2016-12-25T08:38:58.531Z,99.99
2016-12-25T08:39:58.756Z,99.99
2016-12-25T08:40:58.884Z,99.99
2016-12-25T08:41:58.612Z,99.99
2016-12-25T08:42:59.874Z,99.99
2016-12-25T08:43:58.833Z,99.99
2016-12-25T08:44:58.747Z,99.99
2016-12-25T08:45:58.707Z,99.99
2016-12-25T08:46:59.028Z,99.99
2016-12-25T08:47:58.956Z,99.99
2016-12-25T08:48:58.615Z,99.99
2016-12-25T08:49:58.860Z,99.99
2016-12-25T08:50:58.923Z,99.99
2016-12-25T08:51:59.529Z,99.99
2016-12-25T08:52:58.814Z,99.99
2016-12-25T08:53:58.881Z,99.99
2016-12-25T08:54:58.830Z,99.99
2016-12-25T08:55:58.863Z,99.99
2016-12-25T08:56:58.906Z,99.99
2016-12-25T08:57:58.850Z,99.99
2016-12-25T08:58:59.021Z,99.99
2016-12-25T08:59:59.150Z,99.99
2016-12-25T09:00:58.898Z,99.99
2016-12-25T09:01:59.867Z,99.99
2016-12-25T09:02:58.926Z,99.99
2016-12-25T09:03:59.286Z,99.99
2016-12-25T09:04:59.234Z,99.99
2016-12-25T09:05:59.456Z,99.99
2016-12-25T09:06:59.180Z,99.99
2016-12-25T09:07:59.250Z,99.99
2016-12-25T09:09:00.877Z,99.99
2016-12-25T09:09:59.691Z,99.99
2016-12-25T09:10:59.077Z,99.99
2016-12-25T09:12:06.248Z,99.99
2016-12-25T09:12:59.898Z,99.99
2016-12-25T09:13:59.941Z,99.99
2016-12-25T09:14:59.917Z,99.99
2016-12-25T09:15:59.444Z,99.99
2016-12-25T09:16:59.401Z,99.99
2016-12-25T09:17:59.187Z,99.99
2016-12-25T09:18:59.832Z,99.99
2016-12-25T09:19:59.313Z,99.99
2016-12-25T09:20:59.363Z,99.99
2016-12-25T09:22:00.050Z,99.99
2016-12-25T09:22:59.294Z,99.99
2016-12-25T09:23:59.599Z,99.99
2016-12-25T09:25:00.435Z,99.99
2016-12-25T09:25:59.714Z,99.99
2016-12-25T09:26:59.877Z,99.99
2016-12-25T09:27:59.402Z,99.99
2016-12-25T09:28:59.675Z,99.99
2016-12-25T09:29:59.494Z,99.99
2016-12-25T09:30:59.418Z,99.99
2016-12-25T09:32:00.704Z,99.99
2016-12-25T09:33:00.799Z,99.99
2016-12-25T09:33:59.466Z,99.99
2016-12-25T09:34:59.452Z,99.99
2016-12-25T09:35:59.627Z,99.99
2016-12-25T09:36:59.755Z,99.99
2016-12-25T09:37:59.807Z,99.99
2016-12-25T09:39:00.002Z,99.99
2016-12-25T09:40:00.057Z,99.99
2016-12-25T09:40:59.605Z,99.99
2016-12-25T09:41:59.921Z,99.99
2016-12-25T09:42:59.660Z,99.99
2016-12-25T09:43:59.756Z,99.99
2016-12-25T09:44:59.948Z,99.99
2016-12-25T09:46:00.099Z,99.99
2016-12-25T09:47:01.734Z,99.99
2016-12-25T09:48:00.316Z,99.99
2016-12-25T09:48:59.715Z,99.99
2016-12-25T09:50:00.498Z,99.99
2016-12-25T09:51:00.029Z,99.99
2016-12-25T09:52:00.164Z,99.99
2016-12-25T09:53:00.252Z,99.99
2016-12-25T09:54:00.140Z,99.99
2016-12-25T09:55:00.466Z,99.99
2016-12-25T09:55:59.831Z,99.99
2016-12-25T09:57:00.442Z,99.99
2016-12-25T09:58:00.182Z,99.99
2016-12-25T09:58:59.778Z,99.99
2016-12-25T10:00:00.167Z,99.99
2016-12-25T10:01:00.216Z,99.99
2016-12-25T10:01:59.907Z,99.99
2016-12-25T10:03:00.197Z,99.99
2016-12-25T10:03:59.954Z,99.99
2016-12-25T10:05:00.473Z,99.99
2016-12-25T10:05:59.786Z,99.99
2016-12-25T10:07:00.094Z,99.99
2016-12-25T10:08:00.285Z,99.99
2016-12-25T10:08:59.858Z,99.99
2016-12-25T10:10:00.459Z,99.99
2016-12-25T10:11:00.212Z,99.99
2016-12-25T10:12:00.322Z,99.99
2016-12-25T10:13:00.690Z,99.99
2016-12-25T10:14:00.313Z,99.99
2016-12-25T10:15:00.403Z,99.99
2016-12-25T10:16:01.007Z,99.99
2016-12-25T10:17:00.597Z,99.99
2016-12-25T10:18:00.360Z,99.99
2016-12-25T10:19:01.044Z,99.99
2016-12-25T10:20:00.372Z,99.99
2016-12-25T10:21:01.612Z,99.99
2016-12-25T10:22:01.033Z,99.99
2016-12-25T10:23:00.837Z,99.99
2016-12-25T10:24:00.572Z,99.99
2016-12-25T10:25:00.625Z,99.99
2016-12-25T10:26:01.102Z,99.99
2016-12-25T10:27:00.450Z,99.99
2016-12-25T10:28:01.056Z,99.99
2016-12-25T10:29:01.001Z,99.99
2016-12-25T10:30:00.861Z,99.99
2016-12-25T10:31:00.663Z,99.99
2016-12-25T10:32:00.972Z,99.99
2016-12-25T10:33:00.824Z,99.99
2016-12-25T10:34:00.979Z,99.99
2016-12-25T10:35:00.787Z,99.99
2016-12-25T10:36:01.327Z,99.99
2016-12-25T10:37:01.402Z,99.99
2016-12-25T10:38:00.899Z,99.99
2016-12-25T10:39:01.079Z,99.99
2016-12-25T10:40:00.608Z,99.99
2016-12-25T10:41:00.572Z,99.99
2016-12-25T10:42:01.073Z,99.99
2016-12-25T10:43:01.222Z,99.99
2016-12-25T10:44:01.140Z,99.99
2016-12-25T10:45:00.484Z,99.99
2016-12-25T10:46:00.698Z,99.99
2016-12-25T10:47:00.866Z,99.99
2016-12-25T10:48:01.044Z,99.99
2016-12-25T10:49:01.678Z,99.99
2016-12-25T10:50:01.186Z,99.99
2016-12-25T10:51:01.467Z,99.99
2016-12-25T10:52:00.856Z,99.99
2016-12-25T10:53:00.940Z,99.99
2016-12-25T10:54:00.705Z,99.99
2016-12-25T10:55:01.271Z,99.99
2016-12-25T10:56:01.493Z,99.99
2016-12-25T10:57:01.257Z,99.99
2016-12-25T10:58:01.559Z,99.99
2016-12-25T10:59:01.584Z,99.99
2016-12-25T11:00:01.331Z,99.99
2016-12-25T11:01:01.074Z,99.99
2016-12-25T11:02:01.283Z,99.99
2016-12-25T11:03:01.668Z,99.99
2016-12-25T11:04:01.730Z,99.99
2016-12-25T11:05:01.995Z,99.99
2016-12-25T11:06:01.227Z,99.99
2016-12-25T11:07:00.872Z,99.99
2016-12-25T11:08:01.586Z,99.99
2016-12-25T11:09:01.479Z,99.99
2016-12-25T11:10:01.295Z,99.99
2016-12-25T11:11:01.119Z,99.99
2016-12-25T11:12:01.535Z,99.99
2016-12-25T11:13:01.299Z,99.99
2016-12-25T11:14:01.726Z,99.99
2016-12-25T11:15:02.005Z,99.99
2016-12-25T11:16:01.584Z,99.99
2016-12-25T11:17:01.126Z,99.99
2016-12-25T11:18:01.502Z,99.99
2016-12-25T11:19:01.302Z,99.99
2016-12-25T11:20:01.149Z,99.99
2016-12-25T11:21:01.871Z,99.99
2016-12-25T11:22:02.552Z,99.99
2016-12-25T11:23:01.377Z,99.99
2016-12-25T11:24:01.511Z,99.99
2016-12-25T11:25:01.605Z,99.99
2016-12-25T11:26:01.398Z,99.99
2016-12-25T11:27:01.956Z,99.99
2016-12-25T11:28:01.360Z,99.99
2016-12-25T11:29:01.519Z,99.99
2016-12-25T11:30:01.960Z,99.99
2016-12-25T11:31:02.239Z,99.99
2016-12-25T11:32:01.380Z,99.99
2016-12-25T11:33:01.984Z,99.99
2016-12-25T11:34:02.345Z,99.99
2016-12-25T11:35:02.046Z,99.99
2016-12-25T11:36:02.137Z,99.99
2016-12-25T11:37:01.751Z,99.99
2016-12-25T11:38:01.749Z,99.99
2016-12-25T11:39:01.547Z,99.99
2016-12-25T11:40:01.860Z,99.99
2016-12-25T11:41:01.927Z,99.99
2016-12-25T11:42:02.470Z,99.99
2016-12-25T11:43:02.371Z,99.99
2016-12-25T11:44:01.614Z,99.99
2016-12-25T11:45:01.838Z,99.99
2016-12-25T11:46:01.857Z,99.99
2016-12-25T11:47:02.010Z,99.99
2016-12-25T11:48:02.144Z,99.99
2016-12-25T11:49:01.832Z,99.99
2016-12-25T11:50:01.755Z,99.99
2016-12-25T11:51:01.726Z,99.99
2016-12-25T11:52:01.677Z,99.99
2016-12-25T11:53:02.355Z,99.99
2016-12-25T11:54:01.687Z,99.99
2016-12-25T11:55:01.701Z,99.99
2016-12-25T11:56:02.129Z,99.99
2016-12-25T11:57:02.142Z,99.99
2016-12-25T11:58:02.214Z,99.99
2016-12-25T11:59:01.946Z,99.99
2016-12-25T12:00:02.195Z,99.99
2016-12-25T12:01:02.060Z,99.99
2016-12-25T12:02:01.805Z,99.99
2016-12-25T12:03:02.347Z,99.99
2016-12-25T12:04:01.912Z,99.99
2016-12-25T12:05:01.993Z,99.99
2016-12-25T12:06:02.581Z,99.99
2016-12-25T12:07:02.163Z,99.99
2016-12-25T12:08:01.908Z,99.99
2016-12-25T12:09:02.685Z,99.99
2016-12-25T12:10:02.464Z,99.99
2016-12-25T12:11:02.442Z,99.99
2016-12-25T12:12:02.119Z,99.99
2016-12-25T12:13:02.284Z,99.99
2016-12-25T12:14:02.694Z,99.99
2016-12-25T12:15:03.005Z,99.99
2016-12-25T12:16:02.727Z,99.99
2016-12-25T12:17:02.531Z,99.99
2016-12-25T12:18:02.526Z,99.99
2016-12-25T12:19:02.824Z,99.99
2016-12-25T12:20:02.060Z,99.99
2016-12-25T12:21:02.726Z,99.99
2016-12-25T12:22:02.245Z,99.99
2016-12-25T12:23:02.208Z,99.99
2016-12-25T12:24:02.313Z,99.99
2016-12-25T12:25:02.548Z,99.99
2016-12-25T12:26:02.208Z,99.99
2016-12-25T12:27:02.816Z,99.99
2016-12-25T12:28:02.786Z,99.99
2016-12-25T12:29:02.882Z,99.99
2016-12-25T12:30:02.411Z,99.99
2016-12-25T12:31:02.634Z,99.99
2016-12-25T12:32:03.173Z,99.99
2016-12-25T12:33:03.208Z,99.99
2016-12-25T12:34:02.804Z,99.99
2016-12-25T12:35:02.595Z,99.99
2016-12-25T12:36:03.096Z,99.99
2016-12-25T12:37:03.227Z,99.99
2016-12-25T12:38:02.567Z,99.99
2016-12-25T12:39:02.860Z,99.99
2016-12-25T12:40:03.640Z,99.99
2016-12-25T12:41:02.767Z,99.99
2016-12-25T12:42:02.814Z,99.99
2016-12-25T12:43:03.256Z,99.99
2016-12-25T12:44:03.063Z,99.99
2016-12-25T12:45:03.250Z,99.99
2016-12-25T12:46:03.445Z,99.99
2016-12-25T12:47:02.910Z,99.99
2016-12-25T12:48:03.216Z,99.99
2016-12-25T12:49:03.067Z,99.99
2016-12-25T12:50:03.252Z,99.99
2016-12-25T12:51:02.735Z,99.99
2016-12-25T12:52:03.471Z,99.99
2016-12-25T12:53:02.848Z,99.99
2016-12-25T12:54:03.478Z,99.99
2016-12-25T12:55:03.253Z,99.99
2016-12-25T12:56:03.040Z,99.99
2016-12-25T12:57:03.339Z,99.99
2016-12-25T12:58:03.364Z,99.99
2016-12-25T12:59:03.458Z,99.99
2016-12-25T13:00:03.198Z,99.99
2016-12-25T13:01:03.573Z,99.99
2016-12-25T13:02:03.802Z,99.99
2016-12-25T13:03:03.569Z,99.99
2016-12-25T13:04:03.836Z,99.99
2016-12-25T13:05:03.501Z,99.99